Westrac — WTH4325 — position and weather

sailwx.info

Track history (hours):
 
Tides and Currents Weather Stations Pressure Air Temp Water Temp Dewpoint Dewpoint Depression Visibility Wind Speed Wind Dir Waves Ship Positions

Westrac

Owner: WESTERN TOWBOAT CO, SEATTLE, WA. More information available from US FCC via Universal Licensing System and Coast Guard Vessel Documentation Center.

Last reported at 2016-Feb-10 01:06 UTC. Time now 2016-Feb-10 15:13 UTC.
Position N 47°34' W 122°21'.

Length 23 m; draft 5 m.

Type: Tug. MMSI: 366993010.

Date/timePositionNaut miles runAvg speedWind from/ knotsBaromVisibWave heightAir tempDewpointWater temp
2016-Feb-10 01:06N 47°34' W 122°21'4 7.4
2016-Feb-10 00:33N 47°36' W 122°26'3 3.4
2016-Feb-09 23:33N 47°37' W 122°31'7 7.2
2016-Feb-09 22:33N 47°34' W 122°21'0 0.3
2016-Feb-09 21:33N 47°34' W 122°21'0 0.0
2016-Feb-09 20:33N 47°34' W 122°21'0 0.0
2016-Feb-09 19:33N 47°34' W 122°21'1 1.4
2016-Feb-09 18:33N 47°33' W 122°20'1 1.5
2016-Feb-09 17:33N 47°34' W 122°21'0 0.2
2016-Feb-09 16:33N 47°34' W 122°21'0 0.1
2016-Feb-09 15:33N 47°34' W 122°21'0 0.0
2016-Feb-09 14:33N 47°34' W 122°21'0 0.4
2016-Feb-09 13:33N 47°34' W 122°21'0 0.4
2016-Feb-09 12:33N 47°34' W 122°21'1 1.0
2016-Feb-09 11:33N 47°33' W 122°21'0 0.4
2016-Feb-09 10:33N 47°33' W 122°20'1 1.1
2016-Feb-09 09:33N 47°34' W 122°21'0 0.1
2016-Feb-09 08:33N 47°34' W 122°21'0 0.0
2016-Feb-09 07:33N 47°34' W 122°21'0 0.0
2016-Feb-09 06:33N 47°34' W 122°21'0 0.0
2016-Feb-09 05:33N 47°34' W 122°21'1 0.5
2016-Feb-09 04:33N 47°33' W 122°21'1 0.6
2016-Feb-09 03:33N 47°33' W 122°20'1 0.2
2016-Feb-08 20:33N 47°34' W 122°21'2 1.5
2016-Feb-08 19:33N 47°33' W 122°20'1 0.9
2016-Feb-08 18:33N 47°34' W 122°21'1 0.8
2016-Feb-08 17:33N 47°34' W 122°21'1 1.2
2016-Feb-08 16:33N 47°35' W 122°21'1 1.4
2016-Feb-08 15:33N 47°34' W 122°21'0 0.0
2016-Feb-08 14:33N 47°34' W 122°21'0 0.0
2016-Feb-07 17:14N 47°34' W 122°21'0 0.2
2016-Feb-07 16:34N 47°34' W 122°21'1 1.4
2016-Feb-07 15:33N 47°35' W 122°22'1 1.3
2016-Feb-07 14:33N 47°34' W 122°21'1 0.0
2016-Feb-05 23:34N 47°33' W 122°20'0 0.2
2016-Feb-05 22:33N 47°33' W 122°20'1 1.1
2016-Feb-05 21:34N 47°32' W 122°19'4 3.8
2016-Feb-05 20:33N 47°35' W 122°22'1 1.0
2016-Feb-05 19:33N 47°35' W 122°22'1 0.0
2016-Feb-04 22:13N 47°34' W 122°21'0 0.6
2016-Feb-04 21:33N 47°34' W 122°21'1 1.1
2016-Feb-04 20:33N 47°33' W 122°20'2 1.7
2016-Feb-04 19:33N 47°34' W 122°21'1 1.3
2016-Feb-04 18:33N 47°33' W 122°20'1 1.0
2016-Feb-04 17:33N 47°34' W 122°21'1 0.8
2016-Feb-04 16:33N 47°33' W 122°21'0 0.2
2016-Feb-04 15:33N 47°33' W 122°21'2 2.3
2016-Feb-04 14:33N 47°36' W 122°22'0 0.0
2016-Feb-03 20:33N 47°35' W 122°22'2 1.6
2016-Feb-03 19:33N 47°34' W 122°21'0 0.0
2016-Feb-03 07:33N 47°34' W 122°21'0 0.5
2016-Feb-03 06:34N 47°34' W 122°21'0 0.3
2016-Feb-03 05:34N 47°33' W 122°20'3 2.6
2016-Feb-03 04:34N 47°36' W 122°22'3 2.7
2016-Feb-03 03:33N 47°33' W 122°21'1 0.5
2016-Feb-03 02:33N 47°33' W 122°20'0 0.0
2016-Feb-03 01:34N 47°33' W 122°20'0 0.3
2016-Feb-03 00:33N 47°33' W 122°20'2 2.2
2016-Feb-02 23:33N 47°35' W 122°22'1 0.1
2016-Feb-02 05:33N 47°34' W 122°21'1 0.9
2016-Feb-02 04:34N 47°35' W 122°22'1 0.9
2016-Feb-02 03:34N 47°34' W 122°21'0 0.0
2016-Feb-02 02:33N 47°34' W 122°21'0 0.0
2016-Feb-02 01:33N 47°34' W 122°21'2 1.8
2016-Feb-02 00:33N 47°36' W 122°22'2 1.5
2016-Feb-01 23:33N 47°34' W 122°21'1 0.5
2016-Feb-01 22:33N 47°35' W 122°22'1 0.6
2016-Feb-01 21:34N 47°35' W 122°21'2 2.3
2016-Feb-01 20:33N 47°33' W 122°20'2 2.5
2016-Feb-01 19:34N 47°36' W 122°22'2 2.1
2016-Feb-01 18:34N 47°34' W 122°21'1 0.0
2016-Jan-31 23:33N 47°34' W 122°21'0 0.3
2016-Jan-31 22:33N 47°34' W 122°21'0 0.1
2016-Jan-31 21:33N 47°34' W 122°21'0 0.0
2016-Jan-31 20:33N 47°34' W 122°21'0 0.0
2016-Jan-31 19:33N 47°34' W 122°21'0 0.0
2016-Jan-31 18:33N 47°34' W 122°21'0 0.0
2016-Jan-31 17:33N 47°34' W 122°21'1 0.8
2016-Jan-31 16:33N 47°33' W 122°21'1 1.3
2016-Jan-31 15:33N 47°35' W 122°22'  
Track history (hours):
 
Tides and Currents Weather Stations Pressure Air Temp Water Temp Dewpoint Dewpoint Depression Visibility Wind Speed Wind Dir Waves Ship Positions

Westrac

Owner: WESTERN TOWBOAT CO, SEATTLE, WA. More information available from US FCC via Universal Licensing System and Coast Guard Vessel Documentation Center.

Last reported at 2016-Feb-10 01:06 UTC. Time now 2016-Feb-10 15:13 UTC.
Position N 47°34' W 122°21'.

Length 23 m; draft 5 m.

Type: Tug. MMSI: 366993010.

Date/timePositionNaut miles runAvg speedWind from/ knotsBaromVisibWave heightAir tempDewpointWater temp
2016-Feb-10 01:06N 47°34' W 122°21'4 7.4
2016-Feb-10 00:33N 47°36' W 122°26'3 3.4
2016-Feb-09 23:33N 47°37' W 122°31'7 7.2
2016-Feb-09 22:33N 47°34' W 122°21'0 0.3
2016-Feb-09 21:33N 47°34' W 122°21'0 0.0
2016-Feb-09 20:33N 47°34' W 122°21'0 0.0
2016-Feb-09 19:33N 47°34' W 122°21'1 1.4
2016-Feb-09 18:33N 47°33' W 122°20'1 1.5
2016-Feb-09 17:33N 47°34' W 122°21'0 0.2
2016-Feb-09 16:33N 47°34' W 122°21'0 0.1
2016-Feb-09 15:33N 47°34' W 122°21'0 0.0
2016-Feb-09 14:33N 47°34' W 122°21'0 0.4
2016-Feb-09 13:33N 47°34' W 122°21'0 0.4
2016-Feb-09 12:33N 47°34' W 122°21'1 1.0
2016-Feb-09 11:33N 47°33' W 122°21'0 0.4
2016-Feb-09 10:33N 47°33' W 122°20'1 1.1
2016-Feb-09 09:33N 47°34' W 122°21'0 0.1
2016-Feb-09 08:33N 47°34' W 122°21'0 0.0
2016-Feb-09 07:33N 47°34' W 122°21'0 0.0
2016-Feb-09 06:33N 47°34' W 122°21'0 0.0
2016-Feb-09 05:33N 47°34' W 122°21'1 0.5
2016-Feb-09 04:33N 47°33' W 122°21'1 0.6
2016-Feb-09 03:33N 47°33' W 122°20'1 0.2
2016-Feb-08 20:33N 47°34' W 122°21'2 1.5
2016-Feb-08 19:33N 47°33' W 122°20'1 0.9
2016-Feb-08 18:33N 47°34' W 122°21'1 0.8
2016-Feb-08 17:33N 47°34' W 122°21'1 1.2
2016-Feb-08 16:33N 47°35' W 122°21'1 1.4
2016-Feb-08 15:33N 47°34' W 122°21'0 0.0
2016-Feb-08 14:33N 47°34' W 122°21'0 0.0
2016-Feb-07 17:14N 47°34' W 122°21'0 0.2
2016-Feb-07 16:34N 47°34' W 122°21'1 1.4
2016-Feb-07 15:33N 47°35' W 122°22'1 1.3
2016-Feb-07 14:33N 47°34' W 122°21'1 0.0
2016-Feb-05 23:34N 47°33' W 122°20'0 0.2
2016-Feb-05 22:33N 47°33' W 122°20'1 1.1
2016-Feb-05 21:34N 47°32' W 122°19'4 3.8
2016-Feb-05 20:33N 47°35' W 122°22'1 1.0
2016-Feb-05 19:33N 47°35' W 122°22'1 0.0
2016-Feb-04 22:13N 47°34' W 122°21'0 0.6
2016-Feb-04 21:33N 47°34' W 122°21'1 1.1
2016-Feb-04 20:33N 47°33' W 122°20'2 1.7
2016-Feb-04 19:33N 47°34' W 122°21'1 1.3
2016-Feb-04 18:33N 47°33' W 122°20'1 1.0
2016-Feb-04 17:33N 47°34' W 122°21'1 0.8
2016-Feb-04 16:33N 47°33' W 122°21'0 0.2
2016-Feb-04 15:33N 47°33' W 122°21'2 2.3
2016-Feb-04 14:33N 47°36' W 122°22'0 0.0
2016-Feb-03 20:33N 47°35' W 122°22'2 1.6
2016-Feb-03 19:33N 47°34' W 122°21'0 0.0
2016-Feb-03 07:33N 47°34' W 122°21'0 0.5
2016-Feb-03 06:34N 47°34' W 122°21'0 0.3
2016-Feb-03 05:34N 47°33' W 122°20'3 2.6
2016-Feb-03 04:34N 47°36' W 122°22'3 2.7
2016-Feb-03 03:33N 47°33' W 122°21'1 0.5
2016-Feb-03 02:33N 47°33' W 122°20'0 0.0
2016-Feb-03 01:34N 47°33' W 122°20'0 0.3
2016-Feb-03 00:33N 47°33' W 122°20'2 2.2
2016-Feb-02 23:33N 47°35' W 122°22'1 0.1
2016-Feb-02 05:33N 47°34' W 122°21'1 0.9
2016-Feb-02 04:34N 47°35' W 122°22'1 0.9
2016-Feb-02 03:34N 47°34' W 122°21'0 0.0
2016-Feb-02 02:33N 47°34' W 122°21'0 0.0
2016-Feb-02 01:33N 47°34' W 122°21'2 1.8
2016-Feb-02 00:33N 47°36' W 122°22'2 1.5
2016-Feb-01 23:33N 47°34' W 122°21'1 0.5
2016-Feb-01 22:33N 47°35' W 122°22'1 0.6
2016-Feb-01 21:34N 47°35' W 122°21'2 2.3
2016-Feb-01 20:33N 47°33' W 122°20'2 2.5
2016-Feb-01 19:34N 47°36' W 122°22'2 2.1
2016-Feb-01 18:34N 47°34' W 122°21'1 0.0
2016-Jan-31 23:33N 47°34' W 122°21'0 0.3
2016-Jan-31 22:33N 47°34' W 122°21'0 0.1
2016-Jan-31 21:33N 47°34' W 122°21'0 0.0
2016-Jan-31 20:33N 47°34' W 122°21'0 0.0
2016-Jan-31 19:33N 47°34' W 122°21'0 0.0
2016-Jan-31 18:33N 47°34' W 122°21'0 0.0
2016-Jan-31 17:33N 47°34' W 122°21'1 0.8
2016-Jan-31 16:33N 47°33' W 122°21'1 1.3
2016-Jan-31 15:33N 47°35' W 122°22'  

Dump ship's entire track history